| time (UTC) | temp F | wind direction | speed knots | gust knots | rain 1hr in | rain 24hr in | rain mn in | humidity % | barometer mb |
| 20260906230739 | 98 | 203 | 2.6 | 10.4 | 0.00 | 0.00 | 0.00 | 42 | 1012.6 |
| 20260906230239 | 98 | 194 | 3.5 | 10.4 | 0.00 | 0.00 | 0.00 | 42 | 1012.6 |
| 20260906225738 | 98 | 210 | 3.5 | 8.7 | 0.00 | 0.00 | 0.00 | 42 | 1012.7 |
| 20260906225238 | 98 | 184 | 2.6 | 8.7 | 0.00 | 0.00 | 0.00 | 43 | 1012.5 |
| 20260906224738 | 98 | 189 | 1.7 | 7.0 | 0.00 | 0.00 | 0.00 | 42 | 1012.7 |
| 20260906224239 | 98 | 216 | 3.5 | 7.0 | 0.00 | 0.00 | 0.00 | 42 | 1012.6 |
| 20260906223707 | 99 | 190 | 4.3 | 6.1 | 0.00 | 0.00 | 0.00 | 41 | 1012.9 |
| 20260906223209 | 99 | 189 | 2.6 | 9.6 | 0.00 | 0.00 | 0.00 | 40 | 1012.7 |
| 20260906222707 | 98 | 190 | 2.6 | 9.6 | 0.00 | 0.00 | 0.00 | 41 | 1012.6 |
| 20260906222208 | 99 | 166 | 4.3 | 7.8 | 0.00 | 0.00 | 0.00 | 40 | 1012.6 |
| 20260906221707 | 99 | 189 | 3.5 | 6.1 | 0.00 | 0.00 | 0.00 | 41 | 1012.8 |
| 20260906221208 | 99 | 204 | 2.6 | 5.2 | 0.00 | 0.00 | 0.00 | 40 | 1012.7 |
| 20260906220707 | 101 | 178 | 1.7 | 11.3 | 0.00 | 0.00 | 0.00 | 38 | 1012.7 |
| 20260906220137 | 99 | 202 | 2.6 | 11.3 | 0.00 | 0.00 | 0.00 | 41 | 1012.7 |
| 20260906215636 | 100 | 176 | 5.2 | 7.8 | 0.00 | 0.00 | 0.00 | 40 | 1012.7 |
| 20260906215136 | 100 | 169 | 2.6 | 9.6 | 0.00 | 0.00 | 0.00 | 40 | 1012.6 |
| 20260906214637 | 100 | 198 | 1.7 | 9.6 | 0.00 | 0.00 | 0.00 | 41 | 1012.7 |
| 20260906214137 | 100 | 182 | 5.2 | 7.8 | 0.00 | 0.00 | 0.00 | 40 | 1012.7 |
| 20260906213635 | 100 | 180 | 4.3 | 9.6 | 0.00 | 0.00 | 0.00 | 42 | 1012.8 |
| 20260906213106 | 100 | 202 | 3.5 | 9.6 | 0.00 | 0.00 | 0.00 | 41 | 1012.9 |
| 20260906212605 | 100 | 187 | 3.5 | 8.7 | 0.00 | 0.00 | 0.00 | 41 | 1013.1 |
| 20260906212105 | 101 | 160 | 2.6 | 9.6 | 0.00 | 0.00 | 0.00 | 41 | 1013.0 |
| 20260906211605 | 100 | 208 | 4.3 | 9.6 | 0.00 | 0.00 | 0.00 | 41 | 1013.0 |
| 20260906211105 | 100 | 187 | 2.6 | 7.8 | 0.00 | 0.00 | 0.00 | 40 | 1013.3 |
| 20260906210605 | 100 | 165 | 3.5 | 10.4 | 0.00 | 0.00 | 0.00 | 40 | 1013.2 |
| 20260906205534 | 100 | 198 | 2.6 | 9.6 | 0.00 | 0.00 | 0.00 | 40 | 1013.4 |
| 20260906205034 | 100 | 203 | 4.3 | 10.4 | 0.00 | 0.00 | 0.00 | 40 | 1013.4 |
| 20260906204535 | 102 | 131 | 1.7 | 11.3 | 0.00 | 0.00 | 0.00 | 40 | 1013.8 |
| 20260906204034 | 100 | 212 | 4.3 | 11.3 | 0.00 | 0.00 | 0.00 | 41 | 1013.7 |
| 20260906203004 | 102 | 180 | 1.7 | 8.7 | 0.00 | 0.00 | 0.00 | 40 | 1013.7 |
| 20260906202005 | 101 | 175 | 3.5 | 9.6 | 0.00 | 0.00 | 0.00 | 40 | 1013.9 |
| 20260906201503 | 100 | 171 | 1.7 | 7.8 | 0.00 | 0.00 | 0.00 | 41 | 1014.0 |
| 20260906201003 | 101 | 194 | 0.9 | 7.8 | 0.00 | 0.00 | 0.00 | 39 | 1013.8 |
| 20260906195933 | 99 | 176 | 4.3 | 9.6 | 0.00 | 0.00 | 0.00 | 43 | 1014.2 |
| 20260906194933 | 98 | 196 | 4.3 | 9.6 | 0.00 | 0.00 | 0.00 | 44 | 1014.2 |
| 20260906193932 | 101 | 158 | 1.7 | 8.7 | 0.00 | 0.00 | 0.00 | 40 | 1014.3 |
| 20260906191902 | 101 | 173 | 3.5 | 8.7 | 0.00 | 0.00 | 0.00 | 42 | 1014.4 |
| 20260906191401 | 99 | 203 | 3.5 | 8.7 | 0.00 | 0.00 | 0.00 | 44 | 1014.7 |
| 20260906190901 | 99 | 196 | 1.7 | 7.0 | 0.00 | 0.00 | 0.00 | 44 | 1014.6 |
| 20260906190401 | 99 | 200 | 4.3 | 10.4 | 0.00 | 0.00 | 0.00 | 45 | 1014.5 |
| 20260906185901 | 97 | 147 | 5.2 | 10.4 | 0.00 | 0.00 | 0.00 | 47 | 1014.7 |
| 20260906185331 | 97 | 201 | 5.2 | 10.4 | 0.00 | 0.00 | 0.00 | 45 | 1014.7 |
| 20260906184830 | 98 | 205 | 4.3 | 10.4 | 0.00 | 0.00 | 0.00 | 47 | 1014.9 |
| 20260906184331 | 99 | 148 | 5.2 | 9.6 | 0.00 | 0.00 | 0.00 | 46 | 1014.9 |
| 20260906183830 | 97 | 237 | 2.6 | 9.6 | 0.00 | 0.00 | 0.00 | 47 | 1015.0 |
| 20260906183330 | 97 | 191 | 6.1 | 7.8 | 0.00 | 0.00 | 0.00 | 47 | 1015.1 |
| 20260906182300 | 97 | 162 | 3.5 | 7.8 | 0.00 | 0.00 | 0.00 | 48 | 1015.1 |
| 20260906181800 | 98 | 170 | 5.2 | 7.8 | 0.00 | 0.00 | 0.00 | 48 | 1015.1 |
| 20260906181300 | 97 | 178 | 2.6 | 8.7 | 0.00 | 0.00 | 0.00 | 48 | 1015.2 |
| 20260906180800 | 97 | 194 | 2.6 | 8.7 | 0.00 | 0.00 | 0.00 | 47 | 1015.5 |
| 20260906180300 | 97 | 158 | 3.5 | 7.8 | 0.00 | 0.00 | 0.00 | 49 | 1015.3 |
| 20260906175229 | 98 | 217 | 1.7 | 7.8 | 0.00 | 0.00 | 0.00 | 48 | 1015.8 |
| 20260906174729 | 98 | 255 | 0.9 | 6.1 | 0.00 | 0.00 | 0.00 | 48 | 1015.6 |
| 20260906174228 | 99 | 204 | 2.6 | 4.3 | 0.00 | 0.00 | 0.00 | 48 | 1015.7 |
| 20260906173728 | 99 | 182 | 1.7 | 8.7 | 0.00 | 0.00 | 0.00 | 48 | 1016.0 |
| 20260906173229 | 96 | 209 | 4.3 | 8.7 | 0.00 | 0.00 | 0.00 | 50 | 1016.0 |
| 20260906172157 | 96 | 178 | 1.7 | 9.6 | 0.00 | 0.00 | 0.00 | 50 | 1016.0 |
| 20260906171658 | 96 | 205 | 2.6 | 6.1 | 0.00 | 0.00 | 0.00 | 50 | 1016.2 |
| 20260906171157 | 97 | 216 | 1.7 | 7.8 | 0.00 | 0.00 | 0.00 | 48 | 1016.1 |
| 20260906170658 | 96 | 228 | 5.2 | 7.8 | 0.00 | 0.00 | 0.00 | 50 | 1016.2 |
| 20260906170157 | 97 | 216 | 0.9 | 3.5 | 0.00 | 0.00 | 0.00 | 51 | 1016.3 |
| 20260906165657 | 96 | 166 | 1.7 | 9.6 | 0.00 | 0.00 | 0.00 | 51 | 1016.2 |
| 20260906165157 | 94 | 174 | 1.7 | 9.6 | 0.00 | 0.00 | 0.00 | 53 | 1016.2 |
| 20260906164127 | 94 | 149 | 4.3 | 8.7 | 0.00 | 0.00 | 0.00 | 52 | 1016.6 |
| 20260906163126 | 95 | 191 | 1.7 | 6.1 | 0.00 | 0.00 | 0.00 | 53 | 1016.4 |
| 20260906162626 | 95 | 138 | 0.9 | 5.2 | 0.00 | 0.00 | 0.00 | 54 | 1016.4 |
| 20260906161556 | 93 | 140 | 4.3 | 7.0 | 0.00 | 0.00 | 0.00 | 55 | 1016.3 |
| 20260906161056 | 93 | 193 | 3.5 | 7.0 | 0.00 | 0.00 | 0.00 | 54 | 1016.4 |
| 20260906160555 | 92 | 226 | 5.2 | 6.1 | 0.00 | 0.00 | 0.00 | 56 | 1016.2 |
| 20260906160055 | 93 | 226 | 4.3 | 5.2 | 0.00 | 0.00 | 0.00 | 57 | 1016.3 |
| 20260906155555 | 93 | 180 | 1.7 | 4.3 | 0.00 | 0.00 | 0.00 | 58 | 1016.3 |
| 20260906155055 | 92 | 206 | 1.7 | 4.3 | 0.00 | 0.00 | 0.00 | 59 | 1016.4 |
| 20260906154525 | 93 | 236 | 1.7 | 4.3 | 0.00 | 0.00 | 0.00 | 61 | 1016.2 |
| 20260906153524 | 91 | 273 | 0.0 | 5.2 | 0.00 | 0.00 | 0.00 | 64 | 1016.1 |
| 20260906153025 | 91 | 204 | 4.3 | 4.3 | 0.00 | 0.00 | 0.00 | 64 | 1016.2 |
| 20260906152525 | 92 | 170 | 1.7 | 4.3 | 0.00 | 0.00 | 0.00 | 64 | 1016.2 |
| 20260906152025 | 91 | 208 | 1.7 | 5.2 | 0.00 | 0.00 | 0.00 | 64 | 1016.2 |
| 20260906151454 | 89 | 190 | 1.7 | 5.2 | 0.00 | 0.00 | 0.00 | 68 | 1016.2 |
| 20260906150954 | 90 | 203 | 1.7 | 5.2 | 0.00 | 0.00 | 0.00 | 66 | 1016.1 |
| 20260906150454 | 89 | 176 | 1.7 | 5.2 | 0.00 | 0.00 | 0.00 | 67 | 1016.0 |
| 20260906145454 | 87 | 157 | 1.7 | 5.2 | 0.00 | 0.00 | 0.00 | 70 | 1016.0 |
| 20260906144953 | 86 | 220 | 3.5 | 5.2 | 0.00 | 0.00 | 0.00 | 73 | 1015.9 |
| 20260906143923 | 87 | 181 | 1.7 | 4.3 | 0.00 | 0.00 | 0.00 | 73 | 1016.2 |
| 20260906142922 | 86 | 212 | 3.5 | 3.5 | 0.00 | 0.00 | 0.00 | 74 | 1016.1 |
| 20260906142423 | 87 | 204 | 0.0 | 5.2 | 0.00 | 0.00 | 0.00 | 74 | 1016.3 |
| 20260906141921 | 84 | 171 | 1.7 | 5.2 | 0.00 | 0.00 | 0.00 | 77 | 1016.2 |
| 20260906141352 | 84 | 205 | 1.7 | 3.5 | 0.00 | 0.00 | 0.00 | 77 | 1016.1 |
| 20260906140851 | 83 | 205 | 2.6 | 3.5 | 0.00 | 0.00 | 0.00 | 79 | 1016.2 |
| 20260906135352 | 82 | 213 | 1.7 | 3.5 | 0.00 | 0.00 | 0.00 | 82 | 1016.0 |
| 20260906133821 | 81 | 222 | 1.7 | 3.5 | 0.00 | 0.00 | 0.00 | 85 | 1015.8 |
| 20260906133321 | 80 | 184 | 1.7 | 2.6 | 0.00 | 0.00 | 0.00 | 86 | 1016.0 |
| 20260906132821 | 80 | 242 | 0.0 | 3.5 | 0.00 | 0.00 | 0.00 | 86 | 1015.9 |
| 20260906132321 | 80 | 161 | 1.7 | 3.5 | 0.00 | 0.00 | 0.00 | 87 | 1016.1 |
| 20260906131820 | 79 | 227 | 1.7 | 3.5 | 0.00 | 0.00 | 0.00 | 88 | 1015.9 |
| 20260906131320 | 79 | 220 | 1.7 | 3.5 | 0.00 | 0.00 | 0.00 | 88 | 1016.0 |
| 20260906130751 | 78 | 212 | 0.9 | 1.7 | 0.00 | 0.00 | 0.00 | 89 | 1015.9 |
| 20260906130249 | 78 | 293 | 0.0 | 1.7 | 0.00 | 0.00 | 0.00 | 89 | 1016.0 |
| 20260906125750 | 78 | 191 | 0.9 | 1.7 | 0.00 | 0.00 | 0.00 | 90 | 1015.8 |
| 20260906125250 | 77 | 219 | 0.9 | 1.7 | 0.00 | 0.00 | 0.00 | 90 | 1015.7 |
| 20260906124750 | 77 | 175 | 0.9 | 1.7 | 0.00 | 0.00 | 0.00 | 90 | 1015.9 |
| 20260906124249 | 77 | 162 | 0.9 | 1.7 | 0.00 | 0.00 | 0.00 | 91 | 1015.5 |
| 20260906123219 | 76 | 171 | 0.0 | 1.7 | 0.00 | 0.00 | 0.00 | 91 | 1015.5 |
| 20260906122218 | 76 | 211 | 0.0 | 1.7 | 0.00 | 0.00 | 0.00 | 91 | 1015.5 |
| 20260906121218 | 76 | 164 | 0.9 | 1.7 | 0.00 | 0.00 | 0.00 | 91 | 1015.4 |
| 20260906120149 | 76 | 127 | 0.0 | 1.7 | 0.00 | 0.00 | 0.00 | 91 | 1015.2 |
| 20260906115147 | 76 | 228 | 0.0 | 1.7 | 0.00 | 0.00 | 0.00 | 90 | 1015.4 |
| 20260906114648 | 76 | 197 | 0.0 | 1.7 | 0.00 | 0.00 | 0.00 | 91 | 1015.3 |
| 20260906113116 | 77 | 237 | 0.0 | 0.9 | 0.00 | 0.00 | 0.00 | 90 | 1015.0 |
| 20260906112617 | 77 | 309 | 0.0 | 0.9 | 0.00 | 0.00 | 0.00 | 90 | 1015.2 |
| 20260906112117 | 77 | 226 | 0.0 | 1.7 | 0.00 | 0.00 | 0.00 | 90 | 1015.1 |
| 20260906111616 | 77 | 197 | 0.0 | 1.7 | 0.00 | 0.00 | 0.00 | 90 | 1015.0 |
| 20260906110616 | 77 | 180 | 0.0 | 1.7 | 0.00 | 0.00 | 0.00 | 89 | 1015.1 |
| 20260906110046 | 77 | 211 | 0.0 | 1.7 | 0.00 | 0.00 | 0.00 | 89 | 1014.8 |
| 20260906105045 | 77 | 179 | 0.0 | 1.7 | 0.00 | 0.00 | 0.00 | 89 | 1014.9 |
| 20260906104545 | 77 | 218 | 0.0 | 1.7 | 0.00 | 0.00 | 0.00 | 89 | 1014.9 |
| 20260906104046 | 77 | 209 | 0.0 | 1.7 | 0.00 | 0.00 | 0.00 | 88 | 1015.1 |
| 20260906103545 | 77 | 224 | 0.0 | 0.9 | 0.00 | 0.00 | 0.00 | 88 | 1014.9 |
| 20260906103015 | 77 | 186 | 0.0 | 1.7 | 0.00 | 0.00 | 0.00 | 88 | 1014.9 |
| 20260906102016 | 78 | 214 | 1.7 | 1.7 | 0.00 | 0.00 | 0.00 | 88 | 1014.7 |
| 20260906101514 | 78 | 207 | 0.0 | 2.6 | 0.00 | 0.00 | 0.00 | 87 | 1014.8 |
| 20260906101015 | 78 | 201 | 0.9 | 2.6 | 0.00 | 0.00 | 0.00 | 87 | 1014.6 |
| 20260906100514 | 78 | 219 | 0.9 | 1.7 | 0.00 | 0.00 | 0.00 | 87 | 1014.5 |
| 20260906095945 | 78 | 212 | 0.9 | 1.7 | 0.00 | 0.00 | 0.00 | 87 | 1014.8 |
| 20260906095445 | 78 | 198 | 0.0 | 1.7 | 0.00 | 0.00 | 0.00 | 86 | 1014.6 |
| 20260906094944 | 78 | 214 | 0.9 | 1.7 | 0.00 | 0.00 | 0.00 | 86 | 1014.6 |
| 20260906094443 | 78 | 205 | 0.0 | 1.7 | 0.00 | 0.00 | 0.00 | 85 | 1014.3 |
| 20260906093944 | 79 | 218 | 0.0 | 1.7 | 0.00 | 0.00 | 0.00 | 85 | 1014.5 |
| 20260906093444 | 79 | 235 | 0.0 | 1.7 | 0.00 | 0.00 | 0.00 | 85 | 1014.4 |
| 20260906092913 | 79 | 214 | 0.0 | 1.7 | 0.00 | 0.00 | 0.00 | 84 | 1014.4 |
| 20260906092414 | 79 | 155 | 0.0 | 1.7 | 0.00 | 0.00 | 0.00 | 84 | 1014.3 |
| 20260906091912 | 80 | 160 | 0.9 | 2.6 | 0.00 | 0.00 | 0.00 | 83 | 1014.2 |
| 20260906091413 | 80 | 165 | 0.9 | 2.6 | 0.00 | 0.00 | 0.00 | 83 | 1014.1 |
| 20260906090412 | 80 | 180 | 0.9 | 1.7 | 0.00 | 0.00 | 0.00 | 82 | 1014.0 |
| 20260906085842 | 80 | 195 | 0.0 | 1.7 | 0.00 | 0.00 | 0.00 | 82 | 1014.3 |
| 20260906085342 | 80 | 154 | 0.0 | 1.7 | 0.00 | 0.00 | 0.00 | 82 | 1014.1 |
| 20260906084842 | 80 | 160 | 0.0 | 1.7 | 0.00 | 0.00 | 0.00 | 81 | 1014.0 |
| 20260906084344 | 80 | 146 | 0.9 | 1.7 | 0.00 | 0.00 | 0.00 | 81 | 1014.0 |
| 20260906083842 | 80 | 117 | 0.0 | 1.7 | 0.00 | 0.00 | 0.00 | 81 | 1014.1 |
| 20260906083342 | 81 | 154 | 0.0 | 1.7 | 0.00 | 0.00 | 0.00 | 81 | 1013.9 |
| 20260906082812 | 81 | 170 | 0.0 | 2.6 | 0.00 | 0.00 | 0.00 | 80 | 1014.2 |
| 20260906082311 | 81 | 153 | 1.7 | 2.6 | 0.00 | 0.00 | 0.00 | 80 | 1014.0 |
| 20260906080811 | 81 | 144 | 0.9 | 3.5 | 0.00 | 0.00 | 0.00 | 80 | 1014.3 |
| 20260906080310 | 81 | 157 | 1.7 | 2.6 | 0.00 | 0.00 | 0.00 | 79 | 1014.2 |
| 20260906075810 | 81 | 217 | 0.0 | 2.6 | 0.00 | 0.00 | 0.00 | 79 | 1014.4 |
| 20260906075240 | 81 | 113 | 0.0 | 2.6 | 0.00 | 0.00 | 0.00 | 79 | 1014.3 |
| 20260906074741 | 81 | 164 | 0.0 | 2.6 | 0.00 | 0.00 | 0.00 | 79 | 1014.2 |
| 20260906072740 | 81 | 171 | 0.0 | 1.7 | 0.00 | 0.00 | 0.00 | 79 | 1014.2 |
| 20260906071709 | 81 | 230 | 0.0 | 0.9 | 0.00 | 0.00 | 0.00 | 78 | 1014.2 |
| 20260906070708 | 82 | 160 | 0.0 | 0.9 | 0.00 | 0.00 | 0.00 | 77 | 1014.3 |
| 20260906070209 | 82 | 155 | 0.0 | 1.7 | 0.00 | 0.00 | 0.00 | 77 | 1014.3 |
| 20260906065708 | 82 | 222 | 0.0 | 1.7 | 0.00 | 0.00 | 0.00 | 77 | 1014.2 |
| 20260906065139 | 82 | 205 | 0.0 | 1.7 | 0.00 | 0.00 | 0.00 | 77 | 1014.5 |
| 20260906064638 | 82 | 136 | 0.0 | 0.9 | 0.00 | 0.00 | 0.00 | 76 | 1014.5 |
| 20260906064139 | 82 | 195 | 0.0 | 1.7 | 0.00 | 0.00 | 0.00 | 75 | 1014.5 |
| 20260906063638 | 82 | 246 | 0.0 | 2.6 | 0.00 | 0.00 | 0.00 | 75 | 1014.7 |
| 20260906063137 | 82 | 212 | 0.0 | 2.6 | 0.00 | 0.00 | 0.00 | 74 | 1014.5 |
| 20260906062638 | 82 | 205 | 0.0 | 2.6 | 0.00 | 0.00 | 0.00 | 74 | 1014.3 |
| 20260906061607 | 82 | 192 | 0.9 | 3.5 | 0.00 | 0.00 | 0.00 | 74 | 1014.4 |
| 20260906061107 | 83 | 190 | 0.0 | 4.3 | 0.00 | 0.00 | 0.00 | 73 | 1014.5 |
| 20260906060606 | 83 | 204 | 1.7 | 4.3 | 0.00 | 0.00 | 0.00 | 72 | 1014.4 |
| 20260906060106 | 83 | 141 | 2.6 | 5.2 | 0.00 | 0.00 | 0.00 | 71 | 1014.7 |
| 20260906055606 | 83 | 166 | 0.9 | 5.2 | 0.00 | 0.00 | 0.00 | 70 | 1014.4 |
| 20260906055106 | 84 | 174 | 0.9 | 2.6 | 0.00 | 0.00 | 0.00 | 70 | 1014.6 |
| 20260906054536 | 83 | 212 | 0.0 | 1.7 | 0.00 | 0.00 | 0.00 | 70 | 1014.3 |
| 20260906054036 | 84 | 205 | 0.0 | 2.6 | 0.00 | 0.00 | 0.00 | 70 | 1014.7 |
| 20260906053536 | 84 | 151 | 1.7 | 2.6 | 0.00 | 0.00 | 0.00 | 69 | 1014.5 |
| 20260906053036 | 84 | 189 | 1.7 | 3.5 | 0.00 | 0.00 | 0.00 | 69 | 1014.6 |
| 20260906052535 | 84 | 207 | 0.0 | 3.5 | 0.00 | 0.00 | 0.00 | 69 | 1014.5 |
| 20260906052036 | 84 | 158 | 1.7 | 2.6 | 0.00 | 0.00 | 0.00 | 68 | 1014.6 |
| 20260906051506 | 84 | 179 | 1.7 | 1.7 | 0.00 | 0.00 | 0.00 | 68 | 1014.5 |
| 20260906051005 | 84 | 180 | 0.9 | 1.7 | 0.00 | 0.00 | 0.00 | 67 | 1014.4 |
| 20260906050505 | 85 | 155 | 1.7 | 1.7 | 0.00 | 0.00 | 0.00 | 67 | 1014.3 |
| 20260906050005 | 85 | 202 | 0.0 | 2.6 | 0.00 | 0.00 | 0.00 | 66 | 1014.3 |
| 20260906045505 | 85 | 180 | 0.0 | 2.6 | 0.00 | 0.00 | 0.00 | 66 | 1014.3 |
| 20260906045007 | 85 | 147 | 1.7 | 4.3 | 0.00 | 0.00 | 0.00 | 65 | 1014.4 |
| 20260906043934 | 85 | 150 | 1.7 | 4.3 | 0.00 | 0.00 | 0.00 | 65 | 1014.4 |
| 20260906043434 | 85 | 164 | 1.7 | 2.6 | 0.00 | 0.00 | 0.00 | 66 | 1014.2 |
| 20260906042934 | 85 | 188 | 0.0 | 3.5 | 0.00 | 0.00 | 0.00 | 66 | 1014.3 |
| 20260906042434 | 85 | 161 | 0.9 | 3.5 | 0.00 | 0.00 | 0.00 | 66 | 1014.4 |
| 20260906041933 | 85 | 185 | 2.6 | 3.5 | 0.00 | 0.00 | 0.00 | 66 | 1014.4 |
| 20260906041403 | 86 | 227 | 1.7 | 4.3 | 0.00 | 0.00 | 0.00 | 67 | 1014.5 |
| 20260906040903 | 85 | 169 | 1.7 | 4.3 | 0.00 | 0.00 | 0.00 | 67 | 1014.5 |
| 20260906040402 | 86 | 182 | 0.0 | 3.5 | 0.00 | 0.00 | 0.00 | 66 | 1014.5 |
| 20260906035903 | 86 | 191 | 0.0 | 3.5 | 0.00 | 0.00 | 0.00 | 67 | 1014.3 |
| 20260906035402 | 86 | 213 | 0.0 | 2.6 | 0.00 | 0.00 | 0.00 | 66 | 1014.6 |
| 20260906034333 | 86 | 195 | 0.0 | 1.7 | 0.00 | 0.00 | 0.00 | 66 | 1014.4 |
| 20260906033832 | 86 | 159 | 0.9 | 4.3 | 0.00 | 0.00 | 0.00 | 66 | 1014.6 |
| 20260906032832 | 86 | 184 | 1.7 | 3.5 | 0.00 | 0.00 | 0.00 | 66 | 1014.5 |
| 20260906032332 | 86 | 167 | 1.7 | 2.6 | 0.00 | 0.00 | 0.00 | 65 | 1014.4 |
| 20260906031831 | 86 | 207 | 0.9 | 2.6 | 0.00 | 0.00 | 0.00 | 65 | 1014.5 |
| 20260906031331 | 87 | 180 | 0.0 | 2.6 | 0.00 | 0.00 | 0.00 | 65 | 1014.4 |
| 20260906030801 | 87 | 128 | 1.7 | 4.3 | 0.00 | 0.00 | 0.00 | 64 | 1014.4 |
| 20260906030302 | 87 | 165 | 1.7 | 3.5 | 0.00 | 0.00 | 0.00 | 64 | 1014.5 |
| 20260906025800 | 87 | 224 | 1.7 | 3.5 | 0.00 | 0.00 | 0.00 | 64 | 1014.5 |
| 20260906025301 | 87 | 155 | 1.7 | 5.2 | 0.00 | 0.00 | 0.00 | 65 | 1014.5 |
| 20260906024800 | 87 | 153 | 3.5 | 7.0 | 0.00 | 0.00 | 0.00 | 64 | 1014.4 |
| 20260906024301 | 87 | 163 | 1.7 | 7.0 | 0.00 | 0.00 | 0.00 | 64 | 1014.3 |
| 20260906023231 | 87 | 197 | 1.7 | 5.2 | 0.00 | 0.00 | 0.00 | 64 | 1014.1 |
| 20260906022230 | 87 | 188 | 1.7 | 5.2 | 0.00 | 0.00 | 0.00 | 63 | 1014.0 |
| 20260906021729 | 87 | 212 | 3.5 | 5.2 | 0.00 | 0.00 | 0.00 | 63 | 1014.0 |
| 20260906020700 | 87 | 194 | 2.6 | 6.1 | 0.00 | 0.00 | 0.00 | 63 | 1013.7 |
| 20260906020200 | 87 | 187 | 1.7 | 6.1 | 0.00 | 0.00 | 0.00 | 63 | 1013.7 |
| 20260906015659 | 87 | 196 | 1.7 | 4.3 | 0.00 | 0.00 | 0.00 | 62 | 1013.6 |
| 20260906015158 | 88 | 180 | 1.7 | 4.3 | 0.00 | 0.00 | 0.00 | 62 | 1013.8 |
| 20260906014659 | 88 | 209 | 2.6 | 6.1 | 0.00 | 0.00 | 0.00 | 62 | 1013.6 |
| 20260906014158 | 88 | 182 | 1.7 | 7.0 | 0.00 | 0.00 | 0.00 | 61 | 1013.5 |
| 20260906013128 | 88 | 204 | 5.2 | 7.8 | 0.00 | 0.00 | 0.00 | 60 | 1013.4 |
| 20260906012628 | 89 | 164 | 1.7 | 5.2 | 0.00 | 0.00 | 0.00 | 59 | 1013.4 |
| 20260906012129 | 89 | 190 | 1.7 | 7.8 | 0.00 | 0.00 | 0.00 | 59 | 1013.3 |
| 20260906011628 | 89 | 140 | 1.7 | 9.6 | 0.00 | 0.00 | 0.00 | 58 | 1013.2 |
| 20260906011127 | 90 | 171 | 2.6 | 9.6 | 0.00 | 0.00 | 0.00 | 57 | 1013.2 |
| 20260906010558 | 91 | 220 | 2.6 | 10.4 | 0.00 | 0.00 | 0.00 | 56 | 1013.0 |
| 20260906010057 | 91 | 162 | 3.5 | 10.4 | 0.00 | 0.00 | 0.00 | 54 | 1012.9 |
| 20260906005557 | 92 | 165 | 3.5 | 8.7 | 0.00 | 0.00 | 0.00 | 53 | 1013.1 |
| 20260906005058 | 93 | 187 | 1.7 | 8.7 | 0.00 | 0.00 | 0.00 | 52 | 1012.8 |
| 20260906004557 | 93 | 192 | 0.9 | 8.7 | 0.00 | 0.00 | 0.00 | 51 | 1012.8 |
| 20260906003557 | 94 | 195 | 0.9 | 8.7 | 0.00 | 0.00 | 0.00 | 49 | 1012.6 |
| 20260906003026 | 94 | 173 | 2.6 | 8.7 | 0.00 | 0.00 | 0.00 | 48 | 1012.6 |
| 20260906002526 | 95 | 207 | 2.6 | 7.0 | 0.00 | 0.00 | 0.00 | 45 | 1012.4 |
| 20260906001026 | 96 | 138 | 2.6 | 5.2 | 0.00 | 0.00 | 0.00 | 44 | 1012.5 |
| 20260906000526 | 96 | 203 | 2.6 | 5.2 | 0.00 | 0.00 | 0.00 | 44 | 1012.4 |
| 20260905235956 | 97 | 209 | 2.6 | 5.2 | 0.00 | 0.00 | 0.00 | 43 | 1012.4 |
| 20260905235455 | 97 | 171 | 1.7 | 5.2 | 0.00 | 0.00 | 0.00 | 43 | 1012.4 |
| 20260905234954 | 97 | 148 | 2.6 | 6.1 | 0.00 | 0.00 | 0.00 | 42 | 1012.2 |
| 20260905234454 | 98 | 209 | 3.5 | 6.1 | 0.00 | 0.00 | 0.00 | 42 | 1012.2 |
| 20260905233955 | 98 | 205 | 1.7 | 3.5 | 0.00 | 0.00 | 0.00 | 42 | 1012.1 |
| 20260905233455 | 99 | 197 | 1.7 | 5.2 | 0.00 | 0.00 | 0.00 | 41 | 1012.3 |
| 20260905232924 | 99 | 177 | 1.7 | 7.0 | 0.00 | 0.00 | 0.00 | 41 | 1012.3 |
| 20260905231924 | 99 | 180 | 2.6 | 7.8 | 0.00 | 0.00 | 0.00 | 41 | 1012.4 |
| 20260905231425 | 98 | 186 | 2.6 | 7.0 | 0.00 | 0.00 | 0.00 | 41 | 1012.3 |